sensor_id;sensor_type;location;lat;lon;timestamp;pressure;altitude;pressure_sealevel;temperature;humidity
50592;BME280;36548;50.506;30.834;2022-10-31T00:01:20;99667.77;;;11.55;63.93
50592;BME280;36548;50.506;30.834;2022-10-31T00:02:30;99674.81;;;11.45;63.80
50592;BME280;36548;50.506;30.834;2022-10-31T00:03:39;99663.84;;;11.48;63.78
50592;BME280;36548;50.506;30.834;2022-10-31T00:04:48;99671.03;;;11.48;63.75
50592;BME280;36548;50.506;30.834;2022-10-31T00:05:57;99669.22;;;11.48;63.75
50592;BME280;36548;50.506;30.834;2022-10-31T00:07:12;99667.77;;;11.55;63.72
50592;BME280;36548;50.506;30.834;2022-10-31T00:08:20;99667.96;;;11.41;63.75
50592;BME280;36548;50.506;30.834;2022-10-31T00:09:35;99660.06;;;11.51;63.91
50592;BME280;36548;50.506;30.834;2022-10-31T00:10:45;99665.27;;;11.41;63.92
50592;BME280;36548;50.506;30.834;2022-10-31T00:11:55;99667.75;;;11.44;63.93
50592;BME280;36548;50.506;30.834;2022-10-31T00:13:12;99657.59;;;11.48;64.01
50592;BME280;36548;50.506;30.834;2022-10-31T00:14:21;99670.89;;;11.38;63.97
50592;BME280;36548;50.506;30.834;2022-10-31T00:15:33;99673.34;;;11.41;63.97
50592;BME280;36548;50.506;30.834;2022-10-31T00:16:43;99671.52;;;11.41;63.87
50592;BME280;36548;50.506;30.834;2022-10-31T00:17:58;99655.66;;;11.50;63.90
50592;BME280;36548;50.506;30.834;2022-10-31T00:19:08;99667.48;;;11.36;64.02
50592;BME280;36548;50.506;30.834;2022-10-31T00:20:27;99661.48;;;11.32;64.31
50592;BME280;36548;50.506;30.834;2022-10-31T00:21:38;99674.04;;;11.20;64.56
50592;BME280;36548;50.506;30.834;2022-10-31T00:22:52;99668.84;;;11.41;64.67
50592;BME280;36548;50.506;30.834;2022-10-31T00:24:02;99668.81;;;11.30;64.32
50592;BME280;36548;50.506;30.834;2022-10-31T00:25:17;99666.99;;;11.42;64.34
50592;BME280;36548;50.506;30.834;2022-10-31T00:26:29;99668.94;;;11.29;64.29
50592;BME280;36548;50.506;30.834;2022-10-31T00:27:42;99670.63;;;11.30;64.40
50592;BME280;36548;50.506;30.834;2022-10-31T00:28:58;99665.91;;;11.45;64.33
50592;BME280;36548;50.506;30.834;2022-10-31T00:30:09;99668.45;;;11.35;64.34
50592;BME280;36548;50.506;30.834;2022-10-31T00:31:19;99669.78;;;11.29;64.26
50592;BME280;36548;50.506;30.834;2022-10-31T00:32:34;99649.77;;;11.33;64.49
50592;BME280;36548;50.506;30.834;2022-10-31T00:33:44;99673.67;;;11.25;64.69
50592;BME280;36548;50.506;30.834;2022-10-31T00:34:53;99666.19;;;11.17;64.82
50592;BME280;36548;50.506;30.834;2022-10-31T00:36:03;99670.72;;;11.17;64.91
50592;BME280;36548;50.506;30.834;2022-10-31T00:37:19;99655.83;;;11.24;65.08
50592;BME280;36548;50.506;30.834;2022-10-31T00:38:28;99664.50;;;11.16;65.04
50592;BME280;36548;50.506;30.834;2022-10-31T00:39:36;99657.28;;;11.17;65.07
50592;BME280;36548;50.506;30.834;2022-10-31T00:40:46;99657.92;;;11.20;65.12
50592;BME280;36548;50.506;30.834;2022-10-31T00:41:54;99652.67;;;11.19;64.88
50592;BME280;36548;50.506;30.834;2022-10-31T00:43:09;99645.84;;;11.26;64.92
50592;BME280;36548;50.506;30.834;2022-10-31T00:44:19;99657.16;;;11.18;65.07
50592;BME280;36548;50.506;30.834;2022-10-31T00:45:53;99647.51;;;11.16;65.54
50592;BME280;36548;50.506;30.834;2022-10-31T00:47:05;99653.36;;;11.09;65.43
50592;BME280;36548;50.506;30.834;2022-10-31T00:48:20;99645.70;;;11.16;65.50
50592;BME280;36548;50.506;30.834;2022-10-31T00:49:30;99647.48;;;11.04;65.49
50592;BME280;36548;50.506;30.834;2022-10-31T00:50:40;99644.67;;;11.06;65.47
50592;BME280;36548;50.506;30.834;2022-10-31T00:51:50;99651.77;;;11.07;65.53
50592;BME280;36548;50.506;30.834;2022-10-31T00:52:59;99646.15;;;11.10;65.58
50592;BME280;36548;50.506;30.834;2022-10-31T00:54:09;99641.14;;;11.05;65.51
50592;BME280;36548;50.506;30.834;2022-10-31T00:55:18;99637.37;;;11.08;65.60
50592;BME280;36548;50.506;30.834;2022-10-31T00:56:28;99643.70;;;11.07;65.46
50592;BME280;36548;50.506;30.834;2022-10-31T00:57:37;99642.23;;;11.03;65.58
50592;BME280;36548;50.506;30.834;2022-10-31T00:58:47;99640.63;;;11.00;65.72
50592;BME280;36548;50.506;30.834;2022-10-31T00:59:56;99642.11;;;11.04;65.76
50592;BME280;36548;50.506;30.834;2022-10-31T01:01:11;99635.41;;;11.10;65.77
50592;BME280;36548;50.506;30.834;2022-10-31T01:02:20;99630.64;;;11.02;65.79
50592;BME280;36548;50.506;30.834;2022-10-31T01:03:32;99636.02;;;11.02;65.79
50592;BME280;36548;50.506;30.834;2022-10-31T01:04:47;99636.37;;;11.09;65.92
50592;BME280;36548;50.506;30.834;2022-10-31T01:05:59;99639.03;;;10.98;65.86
50592;BME280;36548;50.506;30.834;2022-10-31T01:07:15;99637.13;;;11.11;65.86
50592;BME280;36548;50.506;30.834;2022-10-31T01:08:26;99648.68;;;11.00;65.83
50592;BME280;36548;50.506;30.834;2022-10-31T01:09:42;99636.16;;;11.12;65.84
50592;BME280;36548;50.506;30.834;2022-10-31T01:11:07;99633.33;;;11.02;65.89
50592;BME280;36548;50.506;30.834;2022-10-31T01:12:18;99637.82;;;11.02;65.67
50592;BME280;36548;50.506;30.834;2022-10-31T01:13:34;99630.79;;;11.12;65.71
50592;BME280;36548;50.506;30.834;2022-10-31T01:14:46;99639.27;;;10.95;65.86
50592;BME280;36548;50.506;30.834;2022-10-31T01:15:58;99644.88;;;10.91;65.97
50592;BME280;36548;50.506;30.834;2022-10-31T01:17:08;99640.07;;;10.84;66.27
50592;BME280;36548;50.506;30.834;2022-10-31T01:18:30;99634.98;;;10.92;66.55
50592;BME280;36548;50.506;30.834;2022-10-31T01:19:39;99649.73;;;10.86;66.58
50592;BME280;36548;50.506;30.834;2022-10-31T01:21:06;99647.72;;;11.01;66.37
50592;BME280;36548;50.506;30.834;2022-10-31T01:22:16;99646.36;;;10.96;66.30
50592;BME280;36548;50.506;30.834;2022-10-31T01:23:31;99644.43;;;11.09;65.92
50592;BME280;36548;50.506;30.834;2022-10-31T01:24:39;99646.23;;;10.97;65.81
50592;BME280;36548;50.506;30.834;2022-10-31T01:25:48;99646.23;;;10.97;65.95
50592;BME280;36548;50.506;30.834;2022-10-31T01:27:03;99642.47;;;11.00;65.96
50592;BME280;36548;50.506;30.834;2022-10-31T01:28:15;99645.60;;;10.94;66.05
50592;BME280;36548;50.506;30.834;2022-10-31T01:29:29;99640.38;;;11.03;65.94
50592;BME280;36548;50.506;30.834;2022-10-31T01:30:39;99646.20;;;10.86;65.96
50592;BME280;36548;50.506;30.834;2022-10-31T01:31:48;99658.55;;;10.88;66.09
50592;BME280;36548;50.506;30.834;2022-10-31T01:32:58;99655.97;;;10.87;66.21
50592;BME280;36548;50.506;30.834;2022-10-31T01:34:32;99645.16;;;11.00;66.16
50592;BME280;36548;50.506;30.834;2022-10-31T01:35:43;99654.86;;;10.89;66.15
50592;BME280;36548;50.506;30.834;2022-10-31T01:36:57;99653.94;;;11.02;66.14
50592;BME280;36548;50.506;30.834;2022-10-31T01:38:07;99660.34;;;10.88;66.15
50592;BME280;36548;50.506;30.834;2022-10-31T01:39:18;99661.23;;;10.88;66.17
50592;BME280;36548;50.506;30.834;2022-10-31T01:40:29;99655.58;;;10.80;66.39
50592;BME280;36548;50.506;30.834;2022-10-31T01:41:48;99656.73;;;11.00;66.53
50592;BME280;36548;50.506;30.834;2022-10-31T01:42:57;99658.14;;;10.82;66.45
50592;BME280;36548;50.506;30.834;2022-10-31T01:45:26;99661.55;;;10.84;66.38
50592;BME280;36548;50.506;30.834;2022-10-31T01:47:13;99655.02;;;10.99;66.54
50592;BME280;36548;50.506;30.834;2022-10-31T01:48:24;99663.80;;;10.90;66.24
50592;BME280;36548;50.506;30.834;2022-10-31T01:51:04;99652.45;;;10.98;66.07
50592;BME280;36548;50.506;30.834;2022-10-31T01:53:32;99660.30;;;10.77;66.49
50592;BME280;36548;50.506;30.834;2022-10-31T01:56:12;99653.85;;;10.79;66.59
50592;BME280;36548;50.506;30.834;2022-10-31T01:57:23;99654.12;;;10.63;66.87
50592;BME280;36548;50.506;30.834;2022-10-31T01:58:33;99657.28;;;10.57;66.94
50592;BME280;36548;50.506;30.834;2022-10-31T01:59:47;99658.30;;;10.67;66.97
50592;BME280;36548;50.506;30.834;2022-10-31T02:01:00;99662.14;;;10.76;66.94
50592;BME280;36548;50.506;30.834;2022-10-31T02:02:13;99665.79;;;10.75;66.49
50592;BME280;36548;50.506;30.834;2022-10-31T02:03:24;99669.84;;;10.81;66.50
50592;BME280;36548;50.506;30.834;2022-10-31T02:04:41;99671.84;;;10.90;66.23
50592;BME280;36548;50.506;30.834;2022-10-31T02:05:54;99675.97;;;10.83;66.24
50592;BME280;36548;50.506;30.834;2022-10-31T02:07:17;99667.44;;;10.89;66.16
50592;BME280;36548;50.506;30.834;2022-10-31T02:08:29;99683.63;;;10.76;66.33
50592;BME280;36548;50.506;30.834;2022-10-31T02:09:46;99672.41;;;10.82;66.58
50592;BME280;36548;50.506;30.834;2022-10-31T02:11:00;99668.36;;;10.77;66.49
50592;BME280;36548;50.506;30.834;2022-10-31T02:12:16;99676.22;;;10.91;66.15
50592;BME280;36548;50.506;30.834;2022-10-31T02:13:28;99679.50;;;10.83;66.08
50592;BME280;36548;50.506;30.834;2022-10-31T02:14:39;99683.79;;;10.86;66.02
50592;BME280;36548;50.506;30.834;2022-10-31T02:15:58;99680.06;;;11.00;66.00
50592;BME280;36548;50.506;30.834;2022-10-31T02:17:08;99681.22;;;10.84;65.96
50592;BME280;36548;50.506;30.834;2022-10-31T02:18:19;99688.64;;;10.81;66.12
50592;BME280;36548;50.506;30.834;2022-10-31T02:19:41;99691.96;;;10.84;66.21
50592;BME280;36548;50.506;30.834;2022-10-31T02:21:16;99699.95;;;10.97;65.93
50592;BME280;36548;50.506;30.834;2022-10-31T02:24:12;99686.88;;;10.93;65.76
50592;BME280;36548;50.506;30.834;2022-10-31T02:28:51;99698.75;;;11.01;65.65
50592;BME280;36548;50.506;30.834;2022-10-31T02:30:07;99696.22;;;11.11;65.23
50592;BME280;36548;50.506;30.834;2022-10-31T02:41:31;99710.17;;;11.16;65.17
50592;BME280;36548;50.506;30.834;2022-10-31T02:44:09;99717.59;;;11.13;65.01
50592;BME280;36548;50.506;30.834;2022-10-31T02:45:32;99724.41;;;11.05;64.98
50592;BME280;36548;50.506;30.834;2022-10-31T02:48:27;99715.66;;;11.15;64.97
50592;BME280;36548;50.506;30.834;2022-10-31T02:49:57;99727.09;;;11.05;64.80
50592;BME280;36548;50.506;30.834;2022-10-31T02:51:09;99727.09;;;11.05;64.87
50592;BME280;36548;50.506;30.834;2022-10-31T02:52:28;99734.27;;;11.05;64.69
50592;BME280;36548;50.506;30.834;2022-10-31T02:53:40;99727.65;;;10.98;64.72
50592;BME280;36548;50.506;30.834;2022-10-31T02:54:50;99719.94;;;10.93;64.97
50592;BME280;36548;50.506;30.834;2022-10-31T02:56:11;99731.48;;;10.82;65.20
50592;BME280;36548;50.506;30.834;2022-10-31T02:57:31;99735.94;;;10.95;65.06
50592;BME280;36548;50.506;30.834;2022-10-31T02:58:51;99729.48;;;10.97;64.88
50592;BME280;36548;50.506;30.834;2022-10-31T03:00:08;99729.66;;;11.07;64.98
50592;BME280;36548;50.506;30.834;2022-10-31T03:03:22;99738.23;;;11.12;64.91
50592;BME280;36548;50.506;30.834;2022-10-31T03:06:22;99744.92;;;11.06;64.86
50592;BME280;36548;50.506;30.834;2022-10-31T03:11:49;99760.28;;;11.04;64.54
50592;BME280;36548;50.506;30.834;2022-10-31T03:14:22;99764.05;;;11.02;63.74
50592;BME280;36548;50.506;30.834;2022-10-31T03:16:55;99769.83;;;11.08;62.58
50592;BME280;36548;50.506;30.834;2022-10-31T03:18:16;99778.91;;;10.95;62.11
50592;BME280;36548;50.506;30.834;2022-10-31T03:19:34;99791.43;;;11.07;60.80
50592;BME280;36548;50.506;30.834;2022-10-31T03:20:54;99794.60;;;10.88;59.95
50592;BME280;36548;50.506;30.834;2022-10-31T03:22:19;99799.38;;;10.71;58.98
50592;BME280;36548;50.506;30.834;2022-10-31T03:23:28;99803.47;;;10.64;57.31
50592;BME280;36548;50.506;30.834;2022-10-31T03:24:45;99815.59;;;10.70;56.57
50592;BME280;36548;50.506;30.834;2022-10-31T03:25:57;99815.52;;;10.58;56.67
50592;BME280;36548;50.506;30.834;2022-10-31T03:27:10;99806.27;;;10.63;56.17
50592;BME280;36548;50.506;30.834;2022-10-31T03:28:29;99822.62;;;10.47;53.11
50592;BME280;36548;50.506;30.834;2022-10-31T03:29:40;99819.52;;;10.40;52.64
50592;BME280;36548;50.506;30.834;2022-10-31T03:30:58;99816.70;;;10.54;52.12
50592;BME280;36548;50.506;30.834;2022-10-31T03:32:16;99818.95;;;10.48;52.03
50592;BME280;36548;50.506;30.834;2022-10-31T03:33:30;99831.92;;;10.28;49.70
50592;BME280;36548;50.506;30.834;2022-10-31T03:34:48;99819.52;;;10.40;50.73
50592;BME280;36548;50.506;30.834;2022-10-31T03:36:00;99806.06;;;10.27;50.08
50592;BME280;36548;50.506;30.834;2022-10-31T03:37:18;99814.65;;;10.32;49.22
50592;BME280;36548;50.506;30.834;2022-10-31T03:38:29;99821.31;;;10.14;49.17
50592;BME280;36548;50.506;30.834;2022-10-31T03:39:42;99829.14;;;10.17;48.88
50592;BME280;36548;50.506;30.834;2022-10-31T03:40:54;99835.57;;;10.14;49.17
50592;BME280;36548;50.506;30.834;2022-10-31T03:42:10;99833.11;;;9.98;49.04
50592;BME280;36548;50.506;30.834;2022-10-31T03:44:46;99830.64;;;10.08;49.27
50592;BME280;36548;50.506;30.834;2022-10-31T03:46:00;99841.89;;;10.00;49.23
50592;BME280;36548;50.506;30.834;2022-10-31T03:47:09;99833.22;;;9.97;49.58
50592;BME280;36548;50.506;30.834;2022-10-31T03:48:26;99841.27;;;10.10;49.59
50592;BME280;36548;50.506;30.834;2022-10-31T03:49:35;99839.09;;;9.89;49.46
50592;BME280;36548;50.506;30.834;2022-10-31T03:53:45;99848.87;;;10.03;50.08
50592;BME280;36548;50.506;30.834;2022-10-31T03:55:03;99841.66;;;9.90;49.82
50592;BME280;36548;50.506;30.834;2022-10-31T03:57:50;99840.92;;;9.88;50.19
50592;BME280;36548;50.506;30.834;2022-10-31T03:59:07;99846.69;;;9.82;50.10
50592;BME280;36548;50.506;30.834;2022-10-31T04:00:23;99851.44;;;9.92;50.46
50592;BME280;36548;50.506;30.834;2022-10-31T04:01:34;99849.26;;;9.84;50.67
50592;BME280;36548;50.506;30.834;2022-10-31T04:02:57;99859.15;;;9.96;50.36
50592;BME280;36548;50.506;30.834;2022-10-31T04:04:08;99854.70;;;9.69;50.39
50592;BME280;36548;50.506;30.834;2022-10-31T04:05:19;99859.96;;;9.71;50.78
50592;BME280;36548;50.506;30.834;2022-10-31T04:06:38;99870.59;;;9.85;50.79
50592;BME280;36548;50.506;30.834;2022-10-31T04:07:50;99868.34;;;9.79;50.87
50592;BME280;36548;50.506;30.834;2022-10-31T04:09:08;99870.92;;;9.81;50.81
50592;BME280;36548;50.506;30.834;2022-10-31T04:10:19;99875.62;;;9.77;51.21
50592;BME280;36548;50.506;30.834;2022-10-31T04:11:39;99868.47;;;9.90;51.07
50592;BME280;36548;50.506;30.834;2022-10-31T04:13:48;99868.74;;;9.73;51.19
50592;BME280;36548;50.506;30.834;2022-10-31T04:15:06;99870.59;;;9.85;50.93
50592;BME280;36548;50.506;30.834;2022-10-31T04:16:17;99881.51;;;9.69;51.15
50592;BME280;36548;50.506;30.834;2022-10-31T04:17:36;99871.84;;;9.67;51.46
50592;BME280;36548;50.506;30.834;2022-10-31T04:18:47;99874.53;;;9.67;51.62
50592;BME280;36548;50.506;30.834;2022-10-31T04:19:59;99878.05;;;9.67;51.49
50592;BME280;36548;50.506;30.834;2022-10-31T04:21:09;99881.62;;;9.68;51.70
50592;BME280;36548;50.506;30.834;2022-10-31T04:22:20;99873.69;;;9.66;51.66
50592;BME280;36548;50.506;30.834;2022-10-31T04:23:29;99879.67;;;9.70;51.90
50592;BME280;36548;50.506;30.834;2022-10-31T04:24:40;99882.11;;;9.60;51.74
50592;BME280;36548;50.506;30.834;2022-10-31T04:25:50;99886.97;;;9.68;52.10
50592;BME280;36548;50.506;30.834;2022-10-31T04:27:00;99882.47;;;9.68;52.00
50592;BME280;36548;50.506;30.834;2022-10-31T04:28:10;99881.91;;;9.63;51.85
50592;BME280;36548;50.506;30.834;2022-10-31T04:29:19;99889.87;;;9.65;52.20
50592;BME280;36548;50.506;30.834;2022-10-31T04:30:29;99885.14;;;9.68;52.25
50592;BME280;36548;50.506;30.834;2022-10-31T04:31:40;99892.86;;;9.73;52.19
50592;BME280;36548;50.506;30.834;2022-10-31T04:32:49;99890.30;;;9.71;51.93
50592;BME280;36548;50.506;30.834;2022-10-31T04:34:03;99884.98;;;9.84;51.87
50592;BME280;36548;50.506;30.834;2022-10-31T04:35:14;99896.53;;;9.72;51.77
50592;BME280;36548;50.506;30.834;2022-10-31T04:36:25;99884.93;;;9.71;51.54
50592;BME280;36548;50.506;30.834;2022-10-31T04:37:34;99898.55;;;9.68;51.67
50592;BME280;36548;50.506;30.834;2022-10-31T04:38:50;99888.28;;;9.75;51.72
50592;BME280;36548;50.506;30.834;2022-10-31T04:40:11;99899.92;;;9.61;51.73
50592;BME280;36548;50.506;30.834;2022-10-31T04:41:26;99888.49;;;9.72;51.91
50592;BME280;36548;50.506;30.834;2022-10-31T04:42:36;99900.88;;;9.60;51.74
50592;BME280;36548;50.506;30.834;2022-10-31T04:43:47;99905.48;;;9.58;51.44
50592;BME280;36548;50.506;30.834;2022-10-31T04:44:58;99900.88;;;9.60;51.61
50592;BME280;36548;50.506;30.834;2022-10-31T04:46:08;99904.08;;;9.52;51.53
50592;BME280;36548;50.506;30.834;2022-10-31T04:47:23;99896.39;;;9.61;51.49
50592;BME280;36548;50.506;30.834;2022-10-31T04:48:35;99908.19;;;9.44;51.58
50592;BME280;36548;50.506;30.834;2022-10-31T04:49:46;99903.61;;;9.46;51.73
50592;BME280;36548;50.506;30.834;2022-10-31T04:50:58;99916.91;;;9.47;51.61
50592;BME280;36548;50.506;30.834;2022-10-31T04:52:42;99904.43;;;9.61;51.53
50592;BME280;36548;50.506;30.834;2022-10-31T04:53:54;99923.22;;;9.46;51.47
50592;BME280;36548;50.506;30.834;2022-10-31T04:55:12;99914.38;;;9.59;50.91
50592;BME280;36548;50.506;30.834;2022-10-31T04:56:38;99919.17;;;9.53;51.28
50592;BME280;36548;50.506;30.834;2022-10-31T04:57:53;99923.47;;;9.56;50.77
50592;BME280;36548;50.506;30.834;2022-10-31T04:59:04;99925.05;;;9.46;50.68
50592;BME280;36548;50.506;30.834;2022-10-31T05:00:21;99932.92;;;9.62;50.85
50592;BME280;36548;50.506;30.834;2022-10-31T05:01:32;99932.18;;;9.60;50.74
50592;BME280;36548;50.506;30.834;2022-10-31T05:02:51;99923.27;;;9.86;50.35
50592;BME280;36548;50.506;30.834;2022-10-31T05:04:00;99942.62;;;10.04;50.52
50592;BME280;36548;50.506;30.834;2022-10-31T05:05:17;99930.89;;;10.33;49.26
50592;BME280;36548;50.506;30.834;2022-10-31T05:06:27;99936.07;;;10.36;48.53
50592;BME280;36548;50.506;30.834;2022-10-31T05:08:56;99940.89;;;11.08;48.02
50592;BME280;36548;50.506;30.834;2022-10-31T05:10:06;99944.08;;;11.26;46.67
50592;BME280;36548;50.506;30.834;2022-10-31T05:11:22;99946.38;;;11.43;45.46
50592;BME280;36548;50.506;30.834;2022-10-31T05:12:32;99948.75;;;11.72;46.04
50592;BME280;36548;50.506;30.834;2022-10-31T05:13:53;99949.48;;;12.23;44.77
50592;BME280;36548;50.506;30.834;2022-10-31T05:15:22;99951.84;;;12.27;42.48
50592;BME280;36548;50.506;30.834;2022-10-31T05:16:50;99955.27;;;12.30;41.55
50592;BME280;36548;50.506;30.834;2022-10-31T05:18:05;99945.95;;;12.81;40.76
50592;BME280;36548;50.506;30.834;2022-10-31T05:19:22;99951.47;;;12.90;40.80
50592;BME280;36548;50.506;30.834;2022-10-31T05:20:50;99963.13;;;13.02;39.41
50592;BME280;36548;50.506;30.834;2022-10-31T05:22:05;99958.58;;;13.14;39.47
50592;BME280;36548;50.506;30.834;2022-10-31T05:23:20;99961.02;;;13.06;39.81
50592;BME280;36548;50.506;30.834;2022-10-31T05:24:29;99975.70;;;12.79;39.89
50592;BME280;36548;50.506;30.834;2022-10-31T05:25:40;99978.39;;;12.32;39.72
50592;BME280;36548;50.506;30.834;2022-10-31T05:26:56;99975.41;;;12.48;40.35
50592;BME280;36548;50.506;30.834;2022-10-31T05:28:05;99990.92;;;12.44;39.56
50592;BME280;36548;50.506;30.834;2022-10-31T05:29:20;99979.11;;;12.70;39.65
50592;BME280;36548;50.506;30.834;2022-10-31T05:30:30;99992.13;;;12.99;39.62
50592;BME280;36548;50.506;30.834;2022-10-31T05:31:40;99990.78;;;13.16;38.40
50592;BME280;36548;50.506;30.834;2022-10-31T05:32:57;99998.98;;;12.91;38.40
50592;BME280;36548;50.506;30.834;2022-10-31T05:34:55;100003.41;;;13.04;39.09
50592;BME280;36548;50.506;30.834;2022-10-31T05:36:11;99993.75;;;13.58;38.56
50592;BME280;36548;50.506;30.834;2022-10-31T05:37:26;100016.87;;;13.83;37.45
50592;BME280;36548;50.506;30.834;2022-10-31T05:38:41;100001.17;;;13.88;37.26
50592;BME280;36548;50.506;30.834;2022-10-31T05:39:56;100002.30;;;14.18;36.65
50592;BME280;36548;50.506;30.834;2022-10-31T05:41:05;100004.59;;;14.55;36.51
50592;BME280;36548;50.506;30.834;2022-10-31T05:42:20;100004.34;;;14.79;36.08
50592;BME280;36548;50.506;30.834;2022-10-31T05:43:29;100018.67;;;14.70;35.99
50592;BME280;36548;50.506;30.834;2022-10-31T05:44:46;100011.64;;;14.46;35.70
50592;BME280;36548;50.506;30.834;2022-10-31T05:45:57;100015.61;;;14.31;35.76
50592;BME280;36548;50.506;30.834;2022-10-31T05:47:13;100014.20;;;14.15;35.91
50592;BME280;36548;50.506;30.834;2022-10-31T05:48:37;100021.66;;;13.79;36.31
50592;BME280;36548;50.506;30.834;2022-10-31T05:49:52;100019.84;;;13.35;36.83
50592;BME280;36548;50.506;30.834;2022-10-31T05:51:05;100029.14;;;13.08;37.27
50592;BME280;36548;50.506;30.834;2022-10-31T05:52:20;100044.17;;;12.99;37.44
50592;BME280;36548;50.506;30.834;2022-10-31T05:53:33;100048.49;;;12.31;37.67
50592;BME280;36548;50.506;30.834;2022-10-31T05:54:48;100047.51;;;12.07;38.74
50592;BME280;36548;50.506;30.834;2022-10-31T05:55:57;100060.58;;;12.01;38.28
50592;BME280;36548;50.506;30.834;2022-10-31T05:57:12;100070.64;;;12.10;38.89
50592;BME280;36548;50.506;30.834;2022-10-31T05:58:22;100060.15;;;11.81;38.73
50592;BME280;36548;50.506;30.834;2022-10-31T05:59:37;100052.20;;;11.80;38.39
50592;BME280;36548;50.506;30.834;2022-10-31T06:00:46;100080.20;;;11.64;38.45
50592;BME280;36548;50.506;30.834;2022-10-31T06:02:02;100073.88;;;11.39;38.40
50592;BME280;36548;50.506;30.834;2022-10-31T06:04:00;100073.67;;;11.30;38.73
50592;BME280;36548;50.506;30.834;2022-10-31T06:05:16;100084.01;;;11.36;38.70
50592;BME280;36548;50.506;30.834;2022-10-31T06:06:27;100085.94;;;11.08;38.49
50592;BME280;36548;50.506;30.834;2022-10-31T06:07:43;100060.77;;;10.70;38.65
50592;BME280;36548;50.506;30.834;2022-10-31T06:08:53;100077.95;;;10.40;39.13
50592;BME280;36548;50.506;30.834;2022-10-31T06:10:28;100095.60;;;10.57;39.18
50592;BME280;36548;50.506;30.834;2022-10-31T06:11:38;100098.93;;;10.34;39.60
50592;BME280;36548;50.506;30.834;2022-10-31T06:12:53;100094.02;;;10.55;39.74
50592;BME280;36548;50.506;30.834;2022-10-31T06:14:07;100098.92;;;10.48;39.80
50592;BME280;36548;50.506;30.834;2022-10-31T06:15:22;100093.03;;;10.56;39.94
50592;BME280;36548;50.506;30.834;2022-10-31T06:16:35;100100.97;;;10.30;39.78
50592;BME280;36548;50.506;30.834;2022-10-31T06:18:04;100105.88;;;10.23;39.62
50592;BME280;36548;50.506;30.834;2022-10-31T06:19:28;100112.78;;;10.13;40.10
50592;BME280;36548;50.506;30.834;2022-10-31T06:20:43;100115.39;;;10.15;39.99
50592;BME280;36548;50.506;30.834;2022-10-31T06:21:52;100115.81;;;9.94;40.18
50592;BME280;36548;50.506;30.834;2022-10-31T06:23:03;100103.09;;;9.83;40.71
50592;BME280;36548;50.506;30.834;2022-10-31T06:24:13;100102.14;;;9.84;40.77
50592;BME280;36548;50.506;30.834;2022-10-31T06:25:50;100105.77;;;9.83;41.02
50592;BME280;36548;50.506;30.834;2022-10-31T06:27:05;100108.17;;;9.73;40.91
50592;BME280;36548;50.506;30.834;2022-10-31T06:28:15;100120.53;;;9.76;40.93
50592;BME280;36548;50.506;30.834;2022-10-31T06:29:30;100118.70;;;9.48;41.48
50592;BME280;36548;50.506;30.834;2022-10-31T06:30:47;100125.05;;;9.47;41.76
50592;BME280;36548;50.506;30.834;2022-10-31T06:32:02;100109.98;;;9.73;41.74
50592;BME280;36548;50.506;30.834;2022-10-31T06:33:12;100121.67;;;9.58;41.53
50592;BME280;36548;50.506;30.834;2022-10-31T06:34:27;100111.25;;;9.53;41.72
50592;BME280;36548;50.506;30.834;2022-10-31T06:35:35;100114.39;;;9.45;41.93
50592;BME280;36548;50.506;30.834;2022-10-31T06:36:51;100115.36;;;9.59;41.95
50592;BME280;36548;50.506;30.834;2022-10-31T06:38:02;100106.65;;;9.41;41.41
50592;BME280;36548;50.506;30.834;2022-10-31T06:39:17;100110.09;;;9.57;40.95
50592;BME280;36548;50.506;30.834;2022-10-31T06:40:27;100143.70;;;9.48;41.23
50592;BME280;36548;50.506;30.834;2022-10-31T06:41:54;100116.70;;;9.51;41.16
50592;BME280;36548;50.506;30.834;2022-10-31T06:43:09;100135.84;;;9.60;40.92
50592;BME280;36548;50.506;30.834;2022-10-31T06:44:20;100132.66;;;9.24;40.87
50592;BME280;36548;50.506;30.834;2022-10-31T06:45:40;100129.67;;;9.14;41.22
50592;BME280;36548;50.506;30.834;2022-10-31T06:46:58;100140.23;;;9.32;41.53
50592;BME280;36548;50.506;30.834;2022-10-31T06:48:27;100123.77;;;9.24;41.29
50592;BME280;36548;50.506;30.834;2022-10-31T06:49:45;100127.43;;;9.37;41.40
50592;BME280;36548;50.506;30.834;2022-10-31T06:50:59;100139.03;;;9.07;41.38
50592;BME280;36548;50.506;30.834;2022-10-31T06:52:08;100137.09;;;8.95;41.32
50592;BME280;36548;50.506;30.834;2022-10-31T06:53:24;100128.18;;;9.25;41.63
50592;BME280;36548;50.506;30.834;2022-10-31T06:54:34;100137.06;;;9.25;41.66
50592;BME280;36548;50.506;30.834;2022-10-31T06:55:44;100142.52;;;9.38;41.22
50592;BME280;36548;50.506;30.834;2022-10-31T06:56:59;100144.55;;;9.49;40.86
50592;BME280;36548;50.506;30.834;2022-10-31T06:58:09;100139.19;;;9.34;40.31
50592;BME280;36548;50.506;30.834;2022-10-31T06:59:24;100142.06;;;9.46;40.39
50592;BME280;36548;50.506;30.834;2022-10-31T07:01:15;100145.01;;;9.41;40.33
50592;BME280;36548;50.506;30.834;2022-10-31T07:02:30;100144.35;;;9.37;39.59
50592;BME280;36548;50.506;30.834;2022-10-31T07:03:40;100146.83;;;9.26;39.61
50592;BME280;36548;50.506;30.834;2022-10-31T07:04:55;100151.53;;;9.37;39.28
50592;BME280;36548;50.506;30.834;2022-10-31T07:06:05;100147.02;;;9.23;39.58
50592;BME280;36548;50.506;30.834;2022-10-31T07:07:20;100154.67;;;9.44;40.20
50592;BME280;36548;50.506;30.834;2022-10-31T07:08:32;100150.95;;;9.32;40.31
50592;BME280;36548;50.506;30.834;2022-10-31T07:09:42;100142.02;;;9.17;40.51
50592;BME280;36548;50.506;30.834;2022-10-31T07:10:57;100151.54;;;9.51;40.66
50592;BME280;36548;50.506;30.834;2022-10-31T07:12:07;100153.83;;;9.43;40.64
50592;BME280;36548;50.506;30.834;2022-10-31T07:13:22;100150.20;;;9.59;40.40